Highbridge, New York
Current Conditions -  °F | °C
As of 5:51 PM on Tuesday 21 Oct 2014 (Local Time) from KNYC Reporting Station
Scattered Clouds Scattered Clouds  
Wind Chill: 63°   Ceiling: Unl
Heat Index: 63°   Visibility: 10mi
Dew Point: 52°   Wind: 8mph
Humidity: 67%   Direction: 110°ESE
Pressure: 29.86"   Gusts: NA
Location:  40.8376°N, 73.9236°W
Report Text: KNYC 212151Z AUTO 11007KT 10SM FEW024 SCT060 17/11 A2986 RMK AO2 SLP102 T01720111 $
Loading
Personal Weather Stations






























Interactive Weather Map
Tropical Storm Tracking
New forecast layout! Learn more

10-Day Weather Forecast

Advertisements
Track Severe Weather on mobile